This is the latest recevied weather packets stored in our database for station/object Wangen. If no packets are shown the sender has not sent any weather packets the latest 1 day(s).
| Time | Temp. | Humidity | Pressure | Rain* | Wind** | Luminosity | Snow |
|---|---|---|---|---|---|---|---|
| 1777968131 | 14.44° C | 79% | 1007.1 hPa | 0 mm | 1.79 m/s, 219° | - | - |
| 1777966330 | 13.33° C | 82% | 1007.3 hPa | 0 mm | 0 m/s | - | - |
| 1777964532 | 12.22° C | 83% | 1007.5 hPa | 0 mm | 0 m/s | - | - |
| 1777962731 | 11.67° C | 85% | 1007.6 hPa | 0 mm | 0 m/s | - | - |
| 1777960932 | 9.44° C | 90% | 1007.8 hPa | 0 mm | 0 m/s | - | - |
| 1777959131 | 8.33° C | 92% | 1007.8 hPa | 0 mm | 0 m/s | - | - |
| 1777957331 | 7.78° C | 92% | 1007.8 hPa | 0 mm | 0 m/s | - | - |
| 1777955531 | 7.22° C | 92% | 1007.9 hPa | 0 mm | 0 m/s | - | - |
| 1777953731 | 7.22° C | 92% | 1008 hPa | 0 mm | 0 m/s | - | - |
| 1777951931 | 7.78° C | 91% | 1008.2 hPa | 0 mm | 0 m/s | - | - |
| 1777950133 | 7.78° C | 91% | 1008.4 hPa | 0 mm | 0 m/s | - | - |
| 1777948331 | 8.33° C | 90% | 1008.6 hPa | 0 mm | 0 m/s | - | - |
| 1777946531 | 8.33° C | 90% | 1008.6 hPa | 0 mm | 1.34 m/s, 65° | - | - |
| 1777944731 | 8.89° C | 89% | 1008.9 hPa | 0 mm | 0 m/s | - | - |
| 1777942931 | 9.44° C | 88% | 1009.2 hPa | 0 mm | 0 m/s | - | - |
| 1777941129 | 10° C | 87% | 1009.6 hPa | 0 mm | 0 m/s | - | - |
| 1777939330 | 10.56° C | 87% | 1009.7 hPa | 0 mm | 0 m/s | - | - |
| 1777937529 | 11.11° C | 85% | 1009.9 hPa | 0 mm | 0 m/s | - | - |
| 1777935730 | 11.67° C | 83% | 1010.2 hPa | 0 mm | 0 m/s | - | - |
| 1777933935 | 12.22° C | 80% | 1010.4 hPa | 0 mm | 0 m/s | - | - |
| 1777932129 | 12.22° C | 79% | 1010.4 hPa | 0 mm | 0 m/s | - | - |
| 1777930329 | 12.78° C | 76% | 1010.5 hPa | 0 mm | 0 m/s | - | - |
| 1777928529 | 13.33° C | 71% | 1010.5 hPa | 0 mm | 0 m/s | - | - |
* Rain since midnight (hover to see other rain measurements)
** Current wind speed in m/s (hover to see current wind gust speed)